This is the latest recevied weather packets stored in our database for station/object KB3FKJ. If no packets are shown the sender has not sent any weather packets the latest 10 day(s).
| Time | Temp. | Humidity | Pressure | Rain* | Wind** | Luminosity | Snow |
|---|---|---|---|---|---|---|---|
| 1777739186 | 7.78° C | 56% | 1013.7 hPa | 0 mm | - | 124 W/m² | - |
| 1777738883 | 7.78° C | 55% | 1013.7 hPa | 0 mm | - | 121 W/m² | - |
| 1777738580 | 7.78° C | 57% | 1013.8 hPa | 0 mm | - | 111 W/m² | - |
| 1777738277 | 8.33° C | 55% | 1013.7 hPa | 0 mm | - | 128 W/m² | - |
| 1777737975 | 7.78° C | 54% | 1013.9 hPa | 0 mm | - | 169 W/m² | - |
| 1777737673 | 7.78° C | 54% | 1013.7 hPa | 0 mm | - | 183 W/m² | - |
| 1777737372 | 7.78° C | 55% | 1013.8 hPa | 0 mm | - | 150 W/m² | - |
| 1777737068 | 7.78° C | 57% | 1013.9 hPa | 0 mm | - | 134 W/m² | - |
| 1777736764 | 7.78° C | 59% | 1013.7 hPa | 0 mm | - | 129 W/m² | - |
| 1777736136 | 8.33° C | 58% | 1013.7 hPa | 0 mm | - | 170 W/m² | - |
| 1777735833 | 7.78° C | 60% | 1013.7 hPa | 0 mm | - | 165 W/m² | - |
| 1777735530 | 8.89° C | 55% | 1013.6 hPa | 0 mm | - | 177 W/m² | - |
| 1777735228 | 7.78° C | 59% | 1013.9 hPa | 0 mm | - | 167 W/m² | - |
| 1777734925 | 7.78° C | 57% | 1013.9 hPa | 0 mm | - | 195 W/m² | - |
| 1777734622 | 7.78° C | 56% | 1013.9 hPa | 0 mm | - | 154 W/m² | - |
| 1777734320 | 8.33° C | 56% | 1014 hPa | 0 mm | - | 125 W/m² | - |
| 1777734015 | 7.78° C | 58% | 1013.9 hPa | 0 mm | - | 171 W/m² | - |
| 1777733712 | 7.22° C | 63% | 1013.8 hPa | 0 mm | - | 134 W/m² | - |
| 1777733409 | 7.22° C | 59% | 1013.8 hPa | 0 mm | - | 157 W/m² | - |
| 1777733105 | 7.22° C | 60% | 1013.8 hPa | 0 mm | - | 127 W/m² | - |
| 1777732801 | 7.22° C | 59% | 1013.8 hPa | 0 mm | - | 97 W/m² | - |
| 1777732498 | 7.22° C | 58% | 1013.8 hPa | 0 mm | - | 106 W/m² | - |
| 1777732196 | 6.67° C | 61% | 1013.7 hPa | 0 mm | - | 114 W/m² | - |
| 1777731893 | 6.67° C | 61% | 1013.6 hPa | 0 mm | - | 105 W/m² | - |
| 1777731589 | 7.22° C | 65% | 1013.6 hPa | 0 mm | - | 124 W/m² | - |
* Rain latest hour (hover to see other rain measurements)
** Current wind speed in m/s (hover to see current wind gust speed)